createdAt,value
2023-05-13T00:01:00.951Z,1.38
2023-05-13T00:03:02.797Z,1.27
2023-05-13T00:05:05.805Z,1.35
2023-05-13T00:07:07.499Z,1.45
2023-05-13T00:09:09.975Z,1.05
2023-05-13T00:11:11.723Z,1.00
2023-05-13T00:13:13.395Z,1.30
2023-05-13T00:15:15.127Z,0.90
2023-05-13T00:17:17.040Z,1.23
2023-05-13T00:19:18.721Z,1.38
2023-05-13T00:21:20.443Z,1.10
2023-05-13T00:23:22.648Z,1.33
2023-05-13T00:25:24.383Z,2.38
2023-05-13T00:27:26.132Z,1.40
2023-05-13T00:29:27.859Z,1.17
2023-05-13T00:31:29.702Z,0.98
2023-05-13T00:33:31.797Z,1.35
2023-05-13T00:35:33.436Z,1.30
2023-05-13T00:37:35.305Z,1.70
2023-05-13T00:39:37.187Z,1.40
2023-05-13T00:41:39.099Z,1.30
2023-05-13T00:43:40.815Z,1.70
2023-05-13T00:45:43.283Z,1.33
2023-05-13T00:47:45.204Z,1.40
2023-05-13T00:49:47.186Z,1.30
2023-05-13T00:51:50.915Z,1.45
2023-05-13T00:53:52.904Z,1.42
2023-05-13T00:55:54.603Z,1.30
2023-05-13T00:57:56.283Z,1.70
2023-05-13T00:59:58.010Z,1.35
2023-05-13T01:02:01.797Z,1.90
2023-05-13T01:04:31.583Z,1.90
2023-05-13T01:06:52.246Z,1.60
2023-05-13T01:09:02.728Z,1.80
2023-05-13T01:11:09.566Z,1.40
2023-05-13T01:13:14.156Z,1.27
2023-05-13T01:15:18.866Z,1.38
2023-05-13T01:17:29.460Z,1.33
2023-05-13T01:19:44.689Z,1.52
2023-05-13T01:21:52.930Z,1.42
2023-05-13T01:23:55.037Z,1.92
2023-05-13T01:25:56.738Z,1.23
2023-05-13T01:27:58.633Z,1.85
2023-05-13T01:30:00.548Z,1.90
2023-05-13T01:32:02.931Z,2.88
2023-05-13T01:34:05.978Z,2.47
2023-05-13T01:36:08.165Z,1.70
2023-05-13T01:38:10.810Z,1.77
2023-05-13T01:40:28.251Z,1.38
2023-05-13T01:42:35.040Z,1.67
2023-05-13T01:44:36.773Z,1.55
2023-05-13T01:46:39.198Z,1.38
2023-05-13T01:48:41.109Z,1.45
2023-05-13T01:50:42.829Z,1.50
2023-05-13T01:52:44.517Z,2.00
2023-05-13T01:54:46.290Z,1.77
2023-05-13T01:56:48.023Z,1.90
2023-05-13T01:58:49.829Z,1.27
2023-05-13T02:00:51.544Z,1.40
2023-05-13T02:02:53.358Z,1.75
2023-05-13T02:04:55.106Z,1.80
2023-05-13T02:06:57.254Z,1.67
2023-05-13T02:08:59.244Z,1.40
2023-05-13T02:11:01.293Z,1.88
2023-05-13T02:13:03.995Z,1.50
2023-05-13T02:15:06.500Z,1.77
2023-05-13T02:17:08.258Z,2.15
2023-05-13T02:19:10.037Z,1.67
2023-05-13T02:21:11.962Z,1.52
2023-05-13T02:23:15.156Z,1.63
2023-05-13T02:25:16.900Z,1.88
2023-05-13T02:27:18.642Z,1.60
2023-05-13T02:29:20.307Z,2.00
2023-05-13T02:31:22.107Z,1.98
2023-05-13T02:33:23.870Z,1.92
2023-05-13T02:35:29.772Z,1.83
2023-05-13T02:37:31.595Z,1.92
2023-05-13T02:39:33.338Z,1.50
2023-05-13T02:41:35.318Z,2.00
2023-05-13T02:43:37.076Z,1.65
2023-05-13T02:45:40.910Z,3.13
2023-05-13T02:47:42.812Z,1.63
2023-05-13T02:49:44.565Z,1.40
2023-05-13T02:51:46.370Z,1.13
2023-05-13T02:53:48.310Z,1.73
2023-05-13T02:55:50.267Z,1.70
2023-05-13T02:57:52.030Z,1.80
2023-05-13T02:59:53.885Z,1.42
2023-05-13T03:01:55.589Z,1.70
2023-05-13T03:03:57.295Z,2.35
2023-05-13T03:05:58.998Z,1.90
2023-05-13T03:08:00.683Z,1.65
2023-05-13T03:10:02.460Z,2.55
2023-05-13T03:12:04.479Z,1.85
2023-05-13T03:14:06.245Z,1.50
2023-05-13T03:16:08.020Z,1.85
2023-05-13T03:18:09.748Z,1.67
2023-05-13T03:20:11.885Z,1.65
2023-05-13T03:22:13.616Z,1.77
2023-05-13T03:24:15.274Z,1.48
2023-05-13T03:26:16.994Z,2.08
2023-05-13T03:28:18.740Z,1.48
2023-05-13T03:30:20.710Z,1.90
2023-05-13T03:32:23.667Z,2.08
2023-05-13T03:34:25.446Z,1.67
2023-05-13T03:36:27.122Z,2.38
2023-05-13T03:38:29.249Z,1.92
2023-05-13T03:40:30.976Z,2.58
2023-05-13T03:42:32.636Z,2.40
2023-05-13T03:44:34.413Z,2.00
2023-05-13T03:46:36.101Z,2.55
2023-05-13T03:48:38.122Z,3.35
2023-05-13T03:50:39.914Z,2.38
2023-05-13T03:52:41.638Z,2.75
2023-05-13T03:54:43.347Z,2.55
2023-05-13T03:56:45.021Z,2.28
2023-05-13T03:58:46.757Z,2.38
2023-05-13T04:00:48.811Z,3.03
2023-05-13T04:02:50.844Z,2.90
2023-05-13T04:04:52.794Z,2.70
2023-05-13T04:06:54.571Z,2.50
2023-05-13T04:08:56.306Z,3.05
2023-05-13T04:10:58.026Z,2.83
2023-05-13T04:12:59.910Z,3.78
2023-05-13T04:15:01.677Z,2.47
2023-05-13T04:17:03.488Z,2.60
2023-05-13T04:19:05.309Z,3.33
2023-05-13T04:21:10.391Z,2.83
2023-05-13T04:23:12.052Z,2.65
2023-05-13T04:25:13.926Z,2.85
2023-05-13T04:27:15.678Z,2.95
2023-05-13T04:29:18.108Z,2.65
2023-05-13T04:31:21.424Z,3.25
2023-05-13T04:33:23.146Z,2.85
2023-05-13T04:35:25.167Z,2.42
2023-05-13T04:37:27.435Z,3.15
2023-05-13T04:39:29.421Z,3.00
2023-05-13T04:41:31.135Z,4.32
2023-05-13T04:43:32.914Z,3.10
2023-05-13T04:45:34.599Z,3.42
2023-05-13T04:47:38.154Z,3.22
2023-05-13T04:49:40.073Z,2.95
2023-05-13T04:51:42.170Z,3.17
2023-05-13T04:53:44.259Z,3.50
2023-05-13T04:55:49.569Z,4.00
2023-05-13T04:57:51.286Z,3.70
2023-05-13T04:59:53.052Z,3.95
2023-05-13T05:01:55.104Z,4.55
2023-05-13T05:03:58.558Z,4.28
2023-05-13T05:06:00.357Z,3.58
2023-05-13T05:08:02.169Z,3.72
2023-05-13T05:10:04.074Z,4.28
2023-05-13T05:12:06.173Z,5.13
2023-05-13T05:14:07.851Z,7.00
2023-05-13T05:16:09.889Z,4.25
2023-05-13T05:18:12.013Z,4.78
2023-05-13T05:20:13.813Z,4.97
2023-05-13T05:22:15.615Z,4.70
2023-05-13T05:24:17.720Z,4.32
2023-05-13T05:26:19.458Z,5.10
2023-05-13T05:28:21.331Z,7.63
2023-05-13T05:30:24.177Z,5.57
2023-05-13T05:32:26.268Z,5.82
2023-05-13T05:34:28.016Z,5.90
2023-05-13T05:36:29.950Z,5.57
2023-05-13T05:38:31.713Z,5.72
2023-05-13T05:40:33.603Z,5.53
2023-05-13T05:42:35.229Z,4.68
2023-05-13T05:44:36.895Z,5.57
2023-05-13T05:46:38.549Z,5.25
2023-05-13T05:48:40.732Z,4.75
2023-05-13T05:50:42.481Z,5.22
2023-05-13T05:52:44.236Z,5.80
2023-05-13T05:54:46.138Z,4.85
2023-05-13T05:56:47.797Z,5.38
2023-05-13T05:58:49.581Z,5.40
2023-05-13T06:00:51.256Z,4.63
2023-05-13T06:02:53.055Z,5.13
2023-05-13T06:04:54.786Z,5.97
2023-05-13T06:06:56.507Z,4.22
2023-05-13T06:08:58.177Z,4.95
2023-05-13T06:11:00.148Z,5.22
2023-05-13T06:13:02.471Z,5.35
2023-05-13T06:15:06.592Z,5.07
2023-05-13T06:17:08.261Z,5.60
2023-05-13T06:19:10.046Z,5.18
2023-05-13T06:21:11.835Z,3.95
2023-05-13T06:23:15.063Z,4.10
2023-05-13T06:25:16.807Z,4.20
2023-05-13T06:27:18.600Z,4.13
2023-05-13T06:29:20.262Z,5.13
2023-05-13T06:31:21.995Z,4.35
2023-05-13T06:33:23.726Z,4.18
2023-05-13T06:35:25.674Z,3.10
2023-05-13T06:37:27.542Z,3.38
2023-05-13T06:39:29.287Z,2.80
2023-05-13T06:41:31.307Z,4.22
2023-05-13T06:43:32.995Z,3.30
2023-05-13T06:45:34.704Z,3.13
2023-05-13T06:47:36.501Z,2.55
2023-05-13T06:49:38.219Z,2.35
2023-05-13T06:51:39.938Z,2.80
2023-05-13T06:53:41.638Z,2.90
2023-05-13T06:55:43.340Z,2.78
2023-05-13T06:57:47.861Z,2.40
2023-05-13T06:59:49.596Z,1.98
2023-05-13T07:01:51.258Z,2.13
2023-05-13T07:03:53.524Z,2.17
2023-05-13T07:05:55.661Z,2.28
2023-05-13T07:07:57.382Z,2.42
2023-05-13T07:09:59.190Z,1.85
2023-05-13T07:12:00.898Z,1.60
2023-05-13T07:14:02.691Z,1.73
2023-05-13T07:16:04.780Z,1.80
2023-05-13T07:18:06.621Z,1.70
2023-05-13T07:20:09.359Z,1.70
2023-05-13T07:22:11.578Z,1.75
2023-05-13T07:24:14.781Z,1.70
2023-05-13T07:26:16.789Z,1.67
2023-05-13T07:28:21.511Z,1.80
2023-05-13T07:30:23.613Z,1.35
2023-05-13T07:32:25.601Z,1.60
2023-05-13T07:34:27.275Z,1.40
2023-05-13T07:36:28.911Z,1.48
2023-05-13T07:38:30.582Z,1.40
2023-05-13T07:40:32.296Z,2.00
2023-05-13T07:42:34.048Z,1.77
2023-05-13T07:44:35.750Z,1.73
2023-05-13T07:46:37.486Z,1.33
2023-05-13T07:48:41.812Z,1.50
2023-05-13T07:50:44.896Z,1.48
2023-05-13T07:52:49.111Z,1.30
2023-05-13T07:54:50.919Z,1.48
2023-05-13T07:56:52.617Z,1.40
2023-05-13T07:58:54.244Z,1.55
2023-05-13T08:00:55.999Z,1.20
2023-05-13T08:02:57.749Z,1.23
2023-05-13T08:04:59.535Z,1.27
2023-05-13T08:07:01.603Z,1.17
2023-05-13T08:09:03.848Z,1.30
2023-05-13T08:11:06.011Z,1.55
2023-05-13T08:13:07.726Z,1.20
2023-05-13T08:15:12.063Z,1.33
2023-05-13T08:17:13.716Z,1.40
2023-05-13T08:19:15.618Z,1.02
2023-05-13T08:21:17.380Z,1.10
2023-05-13T08:23:19.117Z,1.27
2023-05-13T08:25:21.501Z,1.30
2023-05-13T08:27:23.376Z,1.40
2023-05-13T08:29:25.113Z,1.30
2023-05-13T08:31:26.978Z,1.08
2023-05-13T08:33:32.342Z,1.23
2023-05-13T08:35:34.088Z,1.70
2023-05-13T08:37:35.965Z,1.35
2023-05-13T08:39:37.656Z,1.60
2023-05-13T08:41:39.852Z,1.10
2023-05-13T08:43:43.888Z,1.48
2023-05-13T08:45:47.482Z,1.50
2023-05-13T08:47:56.694Z,1.25
2023-05-13T08:49:58.416Z,1.50
2023-05-13T08:52:00.298Z,1.27
2023-05-13T08:54:02.643Z,1.50
2023-05-13T08:56:06.075Z,1.30
2023-05-13T08:58:08.089Z,1.75
2023-05-13T09:00:10.380Z,1.30
2023-05-13T09:02:12.165Z,1.70
2023-05-13T09:04:14.226Z,1.70
2023-05-13T09:06:15.911Z,1.55
2023-05-13T09:08:17.616Z,1.83
2023-05-13T09:10:20.992Z,1.77
2023-05-13T09:12:48.956Z,1.48
2023-05-13T09:14:50.903Z,1.65
2023-05-13T09:16:52.759Z,1.35
2023-05-13T09:19:03.656Z,1.50
2023-05-13T09:21:28.190Z,1.55
2023-05-13T09:23:29.877Z,1.58
2023-05-13T09:25:32.134Z,1.60
2023-05-13T09:27:38.737Z,1.02
2023-05-13T09:29:40.550Z,1.40
2023-05-13T09:31:42.775Z,1.50
2023-05-13T09:33:53.122Z,1.55
2023-05-13T09:35:55.033Z,1.30
2023-05-13T09:37:56.979Z,1.25
2023-05-13T09:39:58.690Z,1.70
2023-05-13T09:42:05.408Z,1.67
2023-05-13T09:44:09.272Z,1.70
2023-05-13T09:46:10.977Z,1.05
2023-05-13T09:48:18.416Z,1.20
2023-05-13T09:50:23.264Z,1.40
2023-05-13T09:52:25.256Z,1.30
2023-05-13T09:54:28.718Z,1.80
2023-05-13T09:56:32.177Z,1.63
2023-05-13T09:58:34.738Z,1.67
2023-05-13T10:00:38.976Z,1.50
2023-05-13T10:02:41.646Z,1.40
2023-05-13T10:04:43.447Z,1.20
2023-05-13T10:06:45.756Z,1.20
2023-05-13T10:08:47.579Z,1.08
2023-05-13T10:10:50.723Z,1.38
2023-05-13T10:12:52.766Z,1.30
2023-05-13T10:14:55.238Z,1.63
2023-05-13T10:16:58.391Z,1.60
2023-05-13T10:19:00.794Z,1.33
2023-05-13T10:21:03.833Z,1.88
2023-05-13T10:23:05.647Z,1.40
2023-05-13T10:25:07.723Z,1.13
2023-05-13T10:27:11.804Z,1.42
2023-05-13T10:29:13.525Z,1.50
2023-05-13T10:31:16.540Z,1.15
2023-05-13T10:33:18.666Z,1.75
2023-05-13T10:35:20.695Z,1.33
2023-05-13T10:37:43.514Z,1.58
2023-05-13T10:40:02.897Z,1.45
2023-05-13T10:42:26.018Z,1.35
2023-05-13T10:44:27.903Z,1.10
2023-05-13T10:46:29.900Z,1.17
2023-05-13T10:48:43.950Z,1.30
2023-05-13T10:51:02.961Z,1.40
2023-05-13T10:53:19.569Z,1.50
2023-05-13T10:55:21.820Z,1.20
2023-05-13T10:57:36.005Z,1.90
2023-05-13T10:59:39.004Z,1.23
2023-05-13T11:01:46.002Z,1.83
2023-05-13T11:03:53.554Z,1.88
2023-05-13T11:06:00.959Z,1.85
2023-05-13T11:08:02.805Z,1.58
2023-05-13T11:10:05.560Z,1.70
2023-05-13T11:12:07.657Z,1.77
2023-05-13T11:14:25.566Z,1.80
2023-05-13T11:16:27.397Z,2.53
2023-05-13T11:18:34.782Z,2.05
2023-05-13T11:20:51.745Z,2.00
2023-05-13T11:22:54.069Z,1.30
2023-05-13T11:25:06.965Z,1.52
2023-05-13T11:27:16.453Z,1.35
2023-05-13T11:29:34.948Z,1.52
2023-05-13T11:31:48.380Z,1.45
2023-05-13T11:34:12.539Z,2.00
2023-05-13T11:36:14.220Z,1.50
2023-05-13T11:38:23.687Z,1.52
2023-05-13T11:40:26.150Z,1.73
2023-05-13T11:42:28.810Z,1.42
2023-05-13T11:44:30.651Z,1.50
2023-05-13T11:46:32.355Z,1.60
2023-05-13T11:48:35.672Z,1.70
2023-05-13T11:50:37.387Z,1.60
2023-05-13T11:52:39.134Z,1.83
2023-05-13T11:54:48.963Z,1.55
2023-05-13T11:56:50.732Z,1.73
2023-05-13T11:58:53.452Z,1.63
2023-05-13T12:00:55.129Z,1.85
2023-05-13T12:02:57.957Z,1.48
2023-05-13T12:05:01.915Z,1.70
2023-05-13T12:07:03.801Z,1.60
2023-05-13T12:09:06.799Z,1.77
2023-05-13T12:11:13.178Z,1.35
2023-05-13T12:13:15.179Z,1.45
2023-05-13T12:15:19.341Z,1.58
2023-05-13T12:17:21.939Z,1.20
2023-05-13T12:19:23.643Z,1.65
2023-05-13T12:21:25.404Z,1.73
2023-05-13T12:23:37.338Z,1.20
2023-05-13T12:25:40.122Z,1.40
2023-05-13T12:27:41.848Z,1.65
2023-05-13T12:29:43.734Z,1.65
2023-05-13T12:32:03.769Z,1.48
2023-05-13T12:34:06.595Z,1.30
2023-05-13T12:36:20.688Z,1.60
2023-05-13T12:38:24.666Z,1.50
2023-05-13T12:40:27.038Z,1.73
2023-05-13T12:42:29.072Z,1.45
2023-05-13T12:44:31.478Z,1.45
2023-05-13T12:46:33.280Z,1.40
2023-05-13T12:48:34.990Z,1.70
2023-05-13T12:50:37.358Z,1.42
2023-05-13T12:52:39.008Z,1.70
2023-05-13T12:54:40.876Z,1.58
2023-05-13T12:56:42.506Z,1.52
2023-05-13T12:58:44.210Z,1.33
2023-05-13T13:00:46.137Z,1.20
2023-05-13T13:02:48.029Z,1.27
2023-05-13T13:04:49.845Z,1.40
2023-05-13T13:06:51.551Z,1.50
2023-05-13T13:08:53.245Z,1.60
2023-05-13T13:10:54.977Z,1.48
2023-05-13T13:12:56.677Z,1.48
2023-05-13T13:14:58.318Z,1.42
2023-05-13T13:16:59.978Z,2.17
2023-05-13T13:19:02.109Z,1.77
2023-05-13T13:21:05.365Z,1.98
2023-05-13T13:23:09.584Z,1.85
2023-05-13T13:25:11.369Z,1.95
2023-05-13T13:27:13.082Z,1.67
2023-05-13T13:29:14.792Z,1.40
2023-05-13T13:31:18.924Z,1.58
2023-05-13T13:33:21.166Z,1.98
2023-05-13T13:35:23.093Z,1.67
2023-05-13T13:37:25.194Z,1.67
2023-05-13T13:39:26.954Z,1.85
2023-05-13T13:41:28.664Z,1.70
2023-05-13T13:43:30.404Z,1.42
2023-05-13T13:45:32.334Z,1.40
2023-05-13T13:47:35.178Z,2.10
2023-05-13T13:49:36.964Z,1.50
2023-05-13T13:51:38.636Z,1.63
2023-05-13T13:53:40.869Z,1.40
2023-05-13T13:55:42.526Z,1.50
2023-05-13T13:57:44.214Z,1.70
2023-05-13T13:59:45.836Z,1.60
2023-05-13T14:01:47.524Z,1.77
2023-05-13T14:03:53.442Z,1.95
2023-05-13T14:05:55.380Z,1.80
2023-05-13T14:07:57.121Z,1.63
2023-05-13T14:10:01.036Z,1.42
2023-05-13T14:12:03.369Z,1.60
2023-05-13T14:14:05.189Z,1.30
2023-05-13T14:16:07.133Z,1.70
2023-05-13T14:18:08.936Z,1.33
2023-05-13T14:20:12.205Z,1.88
2023-05-13T14:22:13.977Z,1.58
2023-05-13T14:24:15.721Z,1.42
2023-05-13T14:26:17.510Z,1.50
2023-05-13T14:28:19.181Z,1.67
2023-05-13T14:30:21.054Z,1.48
2023-05-13T14:32:22.914Z,1.52
2023-05-13T14:34:24.557Z,1.55
2023-05-13T14:36:26.899Z,1.60
2023-05-13T14:38:28.642Z,2.10
2023-05-13T14:40:30.761Z,1.67
2023-05-13T14:42:32.600Z,1.85
2023-05-13T14:44:34.346Z,2.65
2023-05-13T14:46:38.206Z,2.17
2023-05-13T14:48:40.056Z,2.53
2023-05-13T14:50:42.105Z,2.03
2023-05-13T14:52:43.792Z,1.75
2023-05-13T14:54:45.451Z,2.70
2023-05-13T14:56:47.207Z,2.20
2023-05-13T14:58:49.154Z,2.50
2023-05-13T15:00:50.945Z,2.63
2023-05-13T15:02:52.810Z,2.13
2023-05-13T15:04:54.652Z,2.13
2023-05-13T15:06:56.651Z,1.70
2023-05-13T15:08:58.323Z,1.80
2023-05-13T15:11:00.907Z,2.33
2023-05-13T15:13:02.550Z,3.00
2023-05-13T15:15:04.669Z,2.10
2023-05-13T15:17:10.892Z,2.10
2023-05-13T15:19:12.894Z,2.25
2023-05-13T15:21:14.652Z,2.60
2023-05-13T15:23:16.419Z,2.92
2023-05-13T15:25:18.219Z,1.92
2023-05-13T15:27:20.033Z,2.00
2023-05-13T15:29:21.840Z,1.90
2023-05-13T15:31:23.676Z,2.35
2023-05-13T15:33:26.801Z,2.40
2023-05-13T15:35:28.518Z,2.17
2023-05-13T15:37:30.399Z,2.40
2023-05-13T15:39:32.139Z,2.15
2023-05-13T15:41:33.945Z,2.80
2023-05-13T15:43:35.730Z,2.08
2023-05-13T15:45:37.520Z,1.98
2023-05-13T15:47:39.509Z,2.85
2023-05-13T15:49:42.116Z,2.00
2023-05-13T15:51:43.967Z,2.60
2023-05-13T15:53:45.750Z,2.03
2023-05-13T15:55:47.894Z,2.22
2023-05-13T15:57:50.571Z,1.80
2023-05-13T15:59:52.584Z,2.38
2023-05-13T16:01:54.558Z,2.13
2023-05-13T16:03:56.529Z,2.00
2023-05-13T16:05:58.811Z,1.95
2023-05-13T16:08:00.617Z,2.03
2023-05-13T16:10:02.469Z,1.67
2023-05-13T16:12:04.382Z,1.75
2023-05-13T16:14:07.845Z,1.75
2023-05-13T16:16:09.712Z,2.70
2023-05-13T16:18:11.606Z,1.88
2023-05-13T16:20:13.607Z,1.83
2023-05-13T16:22:24.754Z,1.80
2023-05-13T16:24:26.576Z,1.80
2023-05-13T16:26:28.287Z,1.83
2023-05-13T16:28:30.195Z,1.98
2023-05-13T16:30:32.069Z,2.08
2023-05-13T16:32:35.045Z,1.58
2023-05-13T16:34:37.049Z,1.63
2023-05-13T16:36:38.918Z,1.80
2023-05-13T16:38:41.741Z,1.42
2023-05-13T16:40:44.042Z,2.08
2023-05-13T16:42:46.539Z,1.60
2023-05-13T16:44:48.517Z,1.52
2023-05-13T16:46:50.340Z,1.80
2023-05-13T16:48:52.157Z,2.00
2023-05-13T16:50:54.063Z,2.20
2023-05-13T16:52:57.069Z,3.20
2023-05-13T16:54:59.258Z,3.90
2023-05-13T16:57:01.343Z,2.53
2023-05-13T16:59:03.005Z,2.83
2023-05-13T17:01:04.831Z,2.38
2023-05-13T17:03:07.802Z,2.42
2023-05-13T17:05:09.779Z,1.60
2023-05-13T17:07:11.458Z,1.98
2023-05-13T17:09:13.200Z,1.77
2023-05-13T17:11:18.105Z,1.90
2023-05-13T17:13:19.852Z,2.15
2023-05-13T17:15:21.842Z,1.80
2023-05-13T17:17:23.572Z,2.08
2023-05-13T17:19:25.512Z,1.88
2023-05-13T17:21:27.199Z,2.33
2023-05-13T17:23:28.839Z,2.20
2023-05-13T17:25:30.575Z,1.92
2023-05-13T17:27:32.322Z,2.38
2023-05-13T17:29:34.086Z,2.00
2023-05-13T17:31:35.803Z,1.77
2023-05-13T17:33:37.605Z,1.70
2023-05-13T17:35:39.473Z,2.40
2023-05-13T17:37:41.183Z,2.13
2023-05-13T17:39:43.116Z,2.47
2023-05-13T17:41:44.847Z,1.85
2023-05-13T17:43:46.662Z,1.73
2023-05-13T17:45:48.352Z,1.60
2023-05-13T17:47:50.118Z,1.67
2023-05-13T17:49:51.906Z,1.80
2023-05-13T17:51:53.703Z,1.30
2023-05-13T17:53:55.441Z,2.03
2023-05-13T17:55:57.177Z,1.90
2023-05-13T17:58:01.992Z,1.75
2023-05-13T18:00:06.901Z,1.45
2023-05-13T18:02:09.058Z,1.80
2023-05-13T18:04:10.847Z,1.80
2023-05-13T18:06:12.711Z,1.83
2023-05-13T18:08:14.414Z,2.95
2023-05-13T18:10:16.364Z,2.05
2023-05-13T18:12:18.269Z,1.77
2023-05-13T18:14:19.926Z,1.63
2023-05-13T18:16:21.707Z,1.70
2023-05-13T18:18:23.635Z,1.58
2023-05-13T18:20:25.630Z,1.73
2023-05-13T18:22:27.322Z,2.03
2023-05-13T18:24:29.570Z,1.70
2023-05-13T18:26:31.216Z,1.38
2023-05-13T18:28:32.937Z,1.88
2023-05-13T18:30:34.673Z,1.80
2023-05-13T18:32:36.446Z,2.15
2023-05-13T18:34:38.192Z,1.75
2023-05-13T18:36:39.854Z,1.88
2023-05-13T18:38:41.823Z,1.75
2023-05-13T18:40:43.482Z,1.77
2023-05-13T18:42:45.229Z,1.83
2023-05-13T18:44:46.888Z,1.90
2023-05-13T18:46:51.748Z,1.55
2023-05-13T18:48:53.535Z,1.70
2023-05-13T18:50:55.305Z,1.80
2023-05-13T18:52:57.105Z,1.73
2023-05-13T18:54:58.813Z,1.85
2023-05-13T18:57:00.656Z,2.00
2023-05-13T18:59:02.357Z,1.90
2023-05-13T19:01:04.153Z,1.73
2023-05-13T19:03:06.376Z,1.70
2023-05-13T19:05:24.638Z,1.60
2023-05-13T19:07:26.606Z,2.17
2023-05-13T19:09:28.274Z,1.83
2023-05-13T19:11:29.939Z,1.83
2023-05-13T19:13:39.852Z,2.10
2023-05-13T19:15:49.463Z,1.70
2023-05-13T19:17:52.685Z,1.90
2023-05-13T19:19:55.422Z,1.77
2023-05-13T19:21:57.107Z,2.45
2023-05-13T19:23:58.913Z,2.20
2023-05-13T19:26:00.630Z,2.30
2023-05-13T19:28:02.770Z,1.63
2023-05-13T19:30:05.587Z,2.47
2023-05-13T19:32:07.366Z,2.58
2023-05-13T19:34:09.944Z,2.45
2023-05-13T19:36:11.697Z,2.50
2023-05-13T19:38:13.510Z,2.17
2023-05-13T19:40:15.344Z,1.90
2023-05-13T19:42:17.190Z,2.00
2023-05-13T19:44:18.948Z,2.30
2023-05-13T19:46:20.870Z,2.00
2023-05-13T19:48:22.666Z,1.90
2023-05-13T19:50:24.770Z,2.40
2023-05-13T19:52:26.887Z,1.83
2023-05-13T19:54:28.605Z,2.20
2023-05-13T19:56:30.669Z,2.42
2023-05-13T19:58:32.585Z,2.55
2023-05-13T20:00:34.277Z,2.72
2023-05-13T20:02:36.037Z,2.30
2023-05-13T20:04:37.766Z,2.47
2023-05-13T20:06:39.512Z,3.55
2023-05-13T20:08:41.382Z,3.03
2023-05-13T20:10:43.073Z,2.58
2023-05-13T20:12:45.121Z,3.20
2023-05-13T20:14:48.907Z,3.53
2023-05-13T20:16:52.241Z,3.20
2023-05-13T20:18:54.046Z,3.63
2023-05-13T20:20:55.914Z,3.17
2023-05-13T20:22:57.571Z,3.78
2023-05-13T20:24:59.408Z,3.97
2023-05-13T20:27:01.087Z,3.47
2023-05-13T20:29:03.340Z,3.45
2023-05-13T20:31:05.057Z,4.05
2023-05-13T20:33:06.833Z,3.15
2023-05-13T20:35:09.006Z,3.55
2023-05-13T20:37:11.144Z,3.40
2023-05-13T20:39:12.821Z,2.97
2023-05-13T20:41:14.635Z,3.15
2023-05-13T20:43:19.295Z,5.47
2023-05-13T20:45:21.535Z,3.10
2023-05-13T20:47:23.326Z,3.08
2023-05-13T20:49:25.030Z,3.47
2023-05-13T20:51:26.762Z,2.80
2023-05-13T20:53:28.518Z,2.90
2023-05-13T20:55:30.344Z,3.05
2023-05-13T20:57:32.160Z,2.75
2023-05-13T20:59:33.854Z,3.05
2023-05-13T21:01:36.151Z,3.08
2023-05-13T21:03:37.975Z,2.90
2023-05-13T21:05:39.789Z,2.95
2023-05-13T21:07:41.457Z,3.55
2023-05-13T21:09:43.198Z,2.72
2023-05-13T21:11:44.955Z,2.63
2023-05-13T21:13:46.607Z,3.97
2023-05-13T21:15:50.802Z,5.55
2023-05-13T21:17:52.801Z,4.00
2023-05-13T21:19:54.531Z,4.18
2023-05-13T21:21:56.321Z,5.00
2023-05-13T21:23:58.159Z,4.47
2023-05-13T21:25:59.891Z,4.30
2023-05-13T21:28:01.626Z,3.58
2023-05-13T21:30:04.630Z,3.63
2023-05-13T21:32:06.653Z,3.75
2023-05-13T21:34:11.376Z,4.00
2023-05-13T21:36:13.118Z,3.35
2023-05-13T21:38:14.865Z,3.63
2023-05-13T21:40:16.706Z,4.15
2023-05-13T21:42:18.395Z,3.47
2023-05-13T21:44:20.330Z,3.63
2023-05-13T21:46:22.005Z,3.28
2023-05-13T21:48:23.823Z,3.60
2023-05-13T21:50:25.621Z,3.15
2023-05-13T21:52:27.321Z,3.33
2023-05-13T21:54:28.999Z,2.90
2023-05-13T21:56:30.899Z,2.70
2023-05-13T21:58:32.610Z,3.42
2023-05-13T22:00:34.718Z,4.25
2023-05-13T22:02:36.494Z,3.45
2023-05-13T22:04:38.238Z,3.78
2023-05-13T22:06:39.988Z,3.88
2023-05-13T22:08:41.684Z,4.05
2023-05-13T22:10:43.361Z,3.30
2023-05-13T22:12:45.088Z,3.20
2023-05-13T22:14:46.815Z,4.07
2023-05-13T22:17:00.927Z,3.47
2023-05-13T22:19:10.070Z,3.10
2023-05-13T22:21:11.845Z,3.55
2023-05-13T22:23:13.559Z,3.15
2023-05-13T22:25:15.475Z,3.45
2023-05-13T22:27:17.233Z,3.50
2023-05-13T22:29:18.962Z,3.63
2023-05-13T22:31:21.023Z,3.60
2023-05-13T22:33:22.898Z,3.90
2023-05-13T22:35:25.285Z,3.70
2023-05-13T22:37:27.223Z,3.75
2023-05-13T22:39:28.922Z,3.60
2023-05-13T22:41:30.662Z,3.58
2023-05-13T22:43:32.938Z,4.13
2023-05-13T22:45:34.628Z,3.40
2023-05-13T22:47:37.224Z,3.80
2023-05-13T22:49:39.077Z,3.85
2023-05-13T22:51:40.847Z,3.40
2023-05-13T22:53:42.545Z,3.95
2023-05-13T22:55:44.232Z,3.17
2023-05-13T22:57:45.932Z,3.17
2023-05-13T22:59:47.595Z,3.95
2023-05-13T23:01:49.347Z,4.00
2023-05-13T23:03:51.239Z,3.42
2023-05-13T23:05:53.105Z,5.40
2023-05-13T23:07:54.820Z,6.28
2023-05-13T23:09:56.567Z,6.22
2023-05-13T23:11:58.400Z,6.03
2023-05-13T23:14:00.278Z,4.53
2023-05-13T23:16:02.166Z,4.53
2023-05-13T23:18:04.093Z,4.72
2023-05-13T23:20:06.718Z,4.95
2023-05-13T23:22:08.421Z,5.15
2023-05-13T23:24:10.116Z,4.63
2023-05-13T23:26:11.868Z,6.65
2023-05-13T23:28:14.222Z,6.80
2023-05-13T23:30:16.272Z,5.93
2023-05-13T23:32:19.162Z,4.75
2023-05-13T23:34:20.927Z,4.50
2023-05-13T23:36:22.590Z,4.47
2023-05-13T23:38:24.355Z,3.67
2023-05-13T23:40:26.148Z,4.38
2023-05-13T23:42:27.987Z,4.90
2023-05-13T23:44:29.688Z,4.78
2023-05-13T23:46:32.043Z,5.82
2023-05-13T23:48:33.744Z,4.57
2023-05-13T23:50:35.709Z,4.38
2023-05-13T23:52:37.393Z,3.88
2023-05-13T23:54:39.119Z,4.82
2023-05-13T23:56:40.953Z,4.20
2023-05-13T23:58:43.267Z,4.40
